createdAt,value
2022-09-01T00:00:01.936Z,16.30
2022-09-01T00:02:34.215Z,17.20
2022-09-01T00:07:30.638Z,18.50
2022-09-01T00:09:59.150Z,17.10
2022-09-01T00:12:26.330Z,18.20
2022-09-01T00:14:53.747Z,17.10
2022-09-01T00:32:04.954Z,16.30
2022-09-01T00:36:59.105Z,15.60
2022-09-01T00:41:53.437Z,15.50
2022-09-01T00:44:28.827Z,16.70
2022-09-01T00:49:35.848Z,16.50
2022-09-01T00:52:14.991Z,16.50
2022-09-01T00:54:50.575Z,15.70
2022-09-01T00:59:58.276Z,18.00
2022-09-01T01:02:25.614Z,15.80
2022-09-01T01:04:52.766Z,17.30
2022-09-01T01:07:22.966Z,16.30
2022-09-01T01:09:51.293Z,16.60
2022-09-01T01:14:50.873Z,15.40
2022-09-01T01:17:20.915Z,16.20
2022-09-01T01:20:13.046Z,16.20
2022-09-01T01:23:06.069Z,15.40
2022-09-01T01:25:42.351Z,15.30
2022-09-01T01:28:26.778Z,16.10
2022-09-01T01:31:11.891Z,16.00
2022-09-01T01:33:46.436Z,17.20
2022-09-01T01:36:21.511Z,16.00
2022-09-01T01:38:49.341Z,16.00
2022-09-01T01:41:19.608Z,16.00
2022-09-01T01:43:48.242Z,17.00
2022-09-01T01:48:47.100Z,14.70
2022-09-01T01:51:20.087Z,15.40
2022-09-01T01:53:52.550Z,15.80
2022-09-01T01:56:20.484Z,15.80
2022-09-01T02:11:09.231Z,15.70
2022-09-01T02:13:36.121Z,15.20
2022-09-01T02:16:07.636Z,16.70
2022-09-01T02:18:37.941Z,15.70
2022-09-01T02:21:15.037Z,15.70
2022-09-01T02:23:46.565Z,15.70
2022-09-01T02:26:16.556Z,14.70
2022-09-01T02:28:50.973Z,14.80
2022-09-01T02:33:50.275Z,14.70
2022-09-01T02:36:19.543Z,15.70
2022-09-01T02:38:53.060Z,15.70
2022-09-01T02:41:23.051Z,15.80
2022-09-01T02:46:17.513Z,14.60
2022-09-01T02:51:17.325Z,15.60
2022-09-01T02:53:46.637Z,15.60
2022-09-01T02:58:48.632Z,15.60
2022-09-01T03:01:22.619Z,14.40
2022-09-01T03:03:51.539Z,15.50
2022-09-01T03:06:20.993Z,16.40
2022-09-01T03:13:43.146Z,14.90
2022-09-01T03:18:39.736Z,15.70
2022-09-01T03:21:08.476Z,16.80
2022-09-01T03:28:32.036Z,17.00
2022-09-01T03:30:59.844Z,14.90
2022-09-01T03:33:28.119Z,16.90
2022-09-01T03:35:57.033Z,15.20
2022-09-01T03:38:25.176Z,15.60
2022-09-01T03:40:59.016Z,15.50
2022-09-01T03:48:32.278Z,15.40
2022-09-01T03:51:02.722Z,15.40
2022-09-01T03:53:35.036Z,15.40
2022-09-01T03:56:04.127Z,16.70
2022-09-01T03:58:32.894Z,16.70
2022-09-01T04:03:32.824Z,15.40
2022-09-01T04:06:02.350Z,15.90
2022-09-01T04:08:32.766Z,15.40
2022-09-01T04:11:05.135Z,14.60
2022-09-01T04:13:39.403Z,15.50
2022-09-01T04:18:54.040Z,14.30
2022-09-01T04:21:20.967Z,14.40
2022-09-01T04:26:20.402Z,15.80
2022-09-01T04:28:50.810Z,15.50
2022-09-01T04:31:20.425Z,15.50
2022-09-01T04:33:52.725Z,15.50
2022-09-01T04:36:34.000Z,15.50
2022-09-01T04:39:02.164Z,16.50
2022-09-01T04:41:31.994Z,14.90
2022-09-01T04:44:04.698Z,15.30
2022-09-01T04:46:42.265Z,14.30
2022-09-01T04:51:41.947Z,14.00
2022-09-01T04:54:11.086Z,16.20
2022-09-01T04:56:39.303Z,14.70
2022-09-01T04:59:11.937Z,15.30
2022-09-01T05:01:43.438Z,16.30
2022-09-01T05:04:16.686Z,15.30
2022-09-01T05:06:55.907Z,14.10
2022-09-01T05:09:25.117Z,14.20
2022-09-01T05:14:43.536Z,15.30
2022-09-01T05:17:12.141Z,15.20
2022-09-01T05:19:41.729Z,15.20
2022-09-01T05:27:12.202Z,14.60
2022-09-01T05:29:39.575Z,16.50
2022-09-01T05:34:39.740Z,14.10
2022-09-01T05:37:08.788Z,14.90
2022-09-01T05:42:08.337Z,16.70
2022-09-01T05:44:43.970Z,15.30
2022-09-01T05:47:20.662Z,14.80
2022-09-01T06:00:10.718Z,15.70
2022-09-01T06:02:41.160Z,14.60
2022-09-01T06:12:38.515Z,16.10
2022-09-01T06:17:46.298Z,16.80
2022-09-01T06:20:13.764Z,17.20
2022-09-01T06:25:10.192Z,17.50
2022-09-01T06:30:15.051Z,16.70
2022-09-01T06:35:18.011Z,17.50
2022-09-01T06:37:45.935Z,19.70
2022-09-01T06:42:51.002Z,15.80
2022-09-01T06:45:21.011Z,17.80
2022-09-01T06:47:51.043Z,16.40
2022-09-01T06:56:02.905Z,15.50
2022-09-01T07:00:58.167Z,16.10
2022-09-01T07:03:26.485Z,16.70
2022-09-01T07:14:26.577Z,18.20
2022-09-01T07:36:25.678Z,16.90
2022-09-01T07:44:38.584Z,18.50
2022-09-01T07:53:04.614Z,18.20
2022-09-01T08:03:03.425Z,18.10
2022-09-01T08:05:31.183Z,20.70
2022-09-01T08:10:31.443Z,18.70
2022-09-01T08:12:58.528Z,21.50
2022-09-01T08:18:14.966Z,19.00
2022-09-01T08:20:47.757Z,19.80
2022-09-01T08:26:10.192Z,20.20
2022-09-01T08:31:11.455Z,21.20
2022-09-01T08:33:40.231Z,20.20
2022-09-01T08:36:08.848Z,21.60
2022-09-01T08:41:05.656Z,21.90
2022-09-01T08:44:00.241Z,22.10
2022-09-01T08:46:35.063Z,21.10
2022-09-01T08:49:24.677Z,23.90
2022-09-01T08:52:35.031Z,23.50
2022-09-01T08:55:17.872Z,24.10
2022-09-01T08:57:46.409Z,23.00
2022-09-01T09:00:24.272Z,22.30
2022-09-01T09:03:17.116Z,22.40
2022-09-01T09:06:08.665Z,22.40
2022-09-01T09:08:53.435Z,23.10
2022-09-01T09:11:51.346Z,23.50
2022-09-01T09:15:00.701Z,25.30
2022-09-01T09:17:34.516Z,24.40
2022-09-01T09:20:04.044Z,24.30
2022-09-01T09:22:31.760Z,26.10
2022-09-01T09:25:12.549Z,24.90
2022-09-01T09:27:42.742Z,25.70
2022-09-01T09:30:28.277Z,24.80
2022-09-01T09:35:51.760Z,25.20
2022-09-01T09:38:31.486Z,26.00
2022-09-01T09:41:19.846Z,27.00
2022-09-01T09:44:01.393Z,26.60
2022-09-01T09:46:37.071Z,26.40
2022-09-01T09:49:34.365Z,26.10
2022-09-01T09:52:09.372Z,26.20
2022-09-01T09:54:38.645Z,26.70
2022-09-01T09:57:08.374Z,26.60
2022-09-01T10:00:01.729Z,26.80
2022-09-01T10:02:36.109Z,27.70
2022-09-01T10:05:21.369Z,27.10
2022-09-01T10:07:49.372Z,27.30
2022-09-01T10:10:42.657Z,27.40
2022-09-01T10:13:13.800Z,27.60
2022-09-01T10:15:44.246Z,27.00
2022-09-01T10:18:21.827Z,27.70
2022-09-01T10:21:08.820Z,27.80
2022-09-01T10:23:37.783Z,28.80
2022-09-01T10:26:25.416Z,28.20
2022-09-01T10:29:08.384Z,28.20
2022-09-01T10:31:41.071Z,28.50
2022-09-01T10:34:13.920Z,28.00
2022-09-01T10:36:42.709Z,29.00
2022-09-01T10:39:22.180Z,29.10
2022-09-01T10:42:00.719Z,29.10
2022-09-01T10:44:33.634Z,29.40
2022-09-01T10:47:13.568Z,29.70
2022-09-01T10:49:47.099Z,29.90
2022-09-01T10:52:43.356Z,30.20
2022-09-01T10:55:48.044Z,29.50
2022-09-01T11:01:48.717Z,30.60
2022-09-01T11:04:23.520Z,30.70
2022-09-01T11:07:14.440Z,30.70
2022-09-01T11:09:44.364Z,30.60
2022-09-01T11:12:37.605Z,31.30
2022-09-01T11:15:27.250Z,31.90
2022-09-01T11:17:55.692Z,31.00
2022-09-01T11:20:38.463Z,31.20
2022-09-01T11:23:34.398Z,30.80
2022-09-01T11:26:33.016Z,30.60
2022-09-01T11:29:01.192Z,31.60
2022-09-01T11:31:32.190Z,31.80
2022-09-01T11:34:20.568Z,31.40
2022-09-01T11:36:56.165Z,31.40
2022-09-01T11:39:42.434Z,33.10
2022-09-01T11:42:26.033Z,31.90
2022-09-01T11:45:03.329Z,34.00
2022-09-01T11:47:40.355Z,32.40
2022-09-01T11:50:23.460Z,32.70
2022-09-01T11:53:04.096Z,32.90
2022-09-01T11:55:41.000Z,33.00
2022-09-01T11:58:17.136Z,31.80
2022-09-01T12:00:44.693Z,33.30
2022-09-01T12:03:25.003Z,33.40
2022-09-01T12:05:59.412Z,33.50
2022-09-01T12:08:30.570Z,33.50
2022-09-01T12:11:30.377Z,32.30
2022-09-01T12:14:02.094Z,33.60
2022-09-01T12:16:35.135Z,33.80
2022-09-01T12:19:02.183Z,33.90
2022-09-01T12:21:38.232Z,34.00
2022-09-01T12:24:20.807Z,34.20
2022-09-01T12:26:51.161Z,34.00
2022-09-01T12:29:18.511Z,34.00
2022-09-01T12:31:48.351Z,34.00
2022-09-01T12:34:33.569Z,34.20
2022-09-01T12:37:05.666Z,34.50
2022-09-01T12:39:39.851Z,34.70
2022-09-01T12:42:19.195Z,34.60
2022-09-01T12:44:56.110Z,34.70
2022-09-01T12:47:40.276Z,34.60
2022-09-01T12:50:13.820Z,34.80
2022-09-01T12:52:47.988Z,34.90
2022-09-01T12:58:08.488Z,34.70
2022-09-01T13:00:57.136Z,34.90
2022-09-01T13:03:25.882Z,34.80
2022-09-01T13:05:54.258Z,35.20
2022-09-01T13:08:27.111Z,35.10
2022-09-01T13:11:07.295Z,35.10
2022-09-01T13:13:35.304Z,35.00
2022-09-01T13:16:12.663Z,34.90
2022-09-01T13:21:30.401Z,34.70
2022-09-01T13:23:59.595Z,34.70
2022-09-01T13:26:26.805Z,34.70
2022-09-01T13:28:53.949Z,34.90
2022-09-01T13:31:28.976Z,35.00
2022-09-01T13:34:23.053Z,35.20
2022-09-01T13:36:46.122Z,35.20
2022-09-01T13:39:15.767Z,35.10
2022-09-01T13:41:43.340Z,35.30
2022-09-01T13:44:11.617Z,35.70
2022-09-01T13:46:59.016Z,35.90
2022-09-01T13:52:13.140Z,36.30
2022-09-01T13:54:40.281Z,36.70
2022-09-01T13:57:07.144Z,36.20
2022-09-01T13:59:34.024Z,35.90
2022-09-01T14:02:01.661Z,35.60
2022-09-01T14:04:28.673Z,35.40
2022-09-01T14:06:55.562Z,35.20
2022-09-01T14:09:22.556Z,35.30
2022-09-01T14:11:52.187Z,35.50
2022-09-01T14:14:19.130Z,35.60
2022-09-01T14:16:46.412Z,35.60
2022-09-01T14:19:13.655Z,35.70
2022-09-01T14:21:40.523Z,35.90
2022-09-01T14:24:08.377Z,35.90
2022-09-01T14:26:35.369Z,35.80
2022-09-01T14:29:02.824Z,35.70
2022-09-01T14:31:30.234Z,35.70
2022-09-01T14:33:57.058Z,35.90
2022-09-01T14:36:26.018Z,36.10
2022-09-01T14:38:53.327Z,36.40
2022-09-01T14:41:24.048Z,38.30
2022-09-01T14:43:57.550Z,36.50
2022-09-01T14:46:25.646Z,36.50
2022-09-01T14:48:52.471Z,36.40
2022-09-01T14:51:26.948Z,36.20
2022-09-01T14:54:13.522Z,35.80
2022-09-01T14:56:41.889Z,35.50
2022-09-01T14:59:10.861Z,35.30
2022-09-01T15:01:37.778Z,35.20
2022-09-01T15:04:04.612Z,35.20
2022-09-01T15:06:31.753Z,35.30
2022-09-01T15:08:59.833Z,35.20
2022-09-01T15:11:28.401Z,35.20
2022-09-01T15:13:55.477Z,35.20
2022-09-01T15:16:25.416Z,35.30
2022-09-01T15:18:53.062Z,35.30
2022-09-01T15:21:30.638Z,35.20
2022-09-01T15:23:57.870Z,35.20
2022-09-01T15:26:25.665Z,35.20
2022-09-01T15:28:53.815Z,35.30
2022-09-01T15:31:24.837Z,35.30
2022-09-01T15:34:02.213Z,35.30
2022-09-01T15:36:30.576Z,35.40
2022-09-01T15:38:58.363Z,35.30
2022-09-01T15:41:28.401Z,35.10
2022-09-01T15:43:56.387Z,34.90
2022-09-01T15:46:31.792Z,34.70
2022-09-01T15:49:03.657Z,34.70
2022-09-01T15:51:35.776Z,34.70
2022-09-01T15:54:11.105Z,34.80
2022-09-01T15:56:38.062Z,34.80
2022-09-01T15:59:06.958Z,34.60
2022-09-01T16:01:41.687Z,34.40
2022-09-01T16:04:15.809Z,34.30
2022-09-01T16:06:44.512Z,34.10
2022-09-01T16:09:12.318Z,33.90
2022-09-01T16:11:42.126Z,35.00
2022-09-01T16:14:09.025Z,34.20
2022-09-01T16:16:48.327Z,34.20
2022-09-01T16:19:15.860Z,34.10
2022-09-01T16:22:11.892Z,34.10
2022-09-01T16:24:47.752Z,34.00
2022-09-01T16:27:17.509Z,33.90
2022-09-01T16:29:47.794Z,33.80
2022-09-01T16:32:16.147Z,33.80
2022-09-01T16:34:47.058Z,33.80
2022-09-01T16:37:20.204Z,33.60
2022-09-01T16:39:51.213Z,33.40
2022-09-01T16:42:36.804Z,33.40
2022-09-01T16:45:27.569Z,33.20
2022-09-01T16:48:02.954Z,33.00
2022-09-01T16:50:43.468Z,33.10
2022-09-01T16:53:39.624Z,33.00
2022-09-01T16:56:13.766Z,32.90
2022-09-01T16:58:43.553Z,32.80
2022-09-01T17:01:41.662Z,32.60
2022-09-01T17:04:36.121Z,32.50
2022-09-01T17:07:14.932Z,32.30
2022-09-01T17:09:50.502Z,32.10
2022-09-01T17:12:39.274Z,32.10
2022-09-01T17:15:14.509Z,31.90
2022-09-01T17:17:50.914Z,31.80
2022-09-01T17:20:21.519Z,31.70
2022-09-01T17:22:55.002Z,31.60
2022-09-01T17:25:32.756Z,32.90
2022-09-01T17:28:16.529Z,30.70
2022-09-01T17:30:57.004Z,31.30
2022-09-01T17:33:32.244Z,30.40
2022-09-01T17:36:30.868Z,31.00
2022-09-01T17:39:16.641Z,31.70
2022-09-01T17:42:21.672Z,30.50
2022-09-01T17:44:58.640Z,30.20
2022-09-01T17:47:46.158Z,30.00
2022-09-01T17:50:39.630Z,29.80
2022-09-01T17:53:42.873Z,29.60
2022-09-01T17:56:35.965Z,29.30
2022-09-01T17:59:16.441Z,28.90
2022-09-01T18:02:03.987Z,27.10
2022-09-01T18:04:30.863Z,28.20
2022-09-01T18:07:15.141Z,28.00
2022-09-01T18:09:48.888Z,28.30
2022-09-01T18:12:24.089Z,27.20
2022-09-01T18:15:00.113Z,27.40
2022-09-01T18:17:37.362Z,26.00
2022-09-01T18:20:24.458Z,26.90
2022-09-01T18:23:07.481Z,26.70
2022-09-01T18:25:46.024Z,25.70
2022-09-01T18:28:14.190Z,26.30
2022-09-01T18:31:13.815Z,26.10
2022-09-01T18:34:16.124Z,25.70
2022-09-01T18:37:10.783Z,25.70
2022-09-01T18:39:49.684Z,25.50
2022-09-01T18:42:30.318Z,25.30
2022-09-01T18:45:15.870Z,25.20
2022-09-01T18:48:06.306Z,23.40
2022-09-01T18:50:55.978Z,23.80
2022-09-01T18:53:28.114Z,24.70
2022-09-01T18:56:08.335Z,23.10
2022-09-01T18:58:49.049Z,23.30
2022-09-01T19:01:48.395Z,24.00
2022-09-01T19:04:29.684Z,23.50
2022-09-01T19:07:14.310Z,23.80
2022-09-01T19:09:57.671Z,23.50
2022-09-01T19:12:35.707Z,22.90
2022-09-01T19:15:37.078Z,24.50
2022-09-01T19:18:12.726Z,22.90
2022-09-01T19:20:56.091Z,22.20
2022-09-01T19:23:41.185Z,23.30
2022-09-01T19:26:15.850Z,22.10
2022-09-01T19:29:04.874Z,23.80
2022-09-01T19:31:39.778Z,21.60
2022-09-01T19:34:14.736Z,22.90
2022-09-01T19:36:53.496Z,24.20
2022-09-01T19:39:25.341Z,21.90
2022-09-01T19:42:00.215Z,22.70
2022-09-01T19:44:45.311Z,24.10
2022-09-01T19:47:46.487Z,21.30
2022-09-01T19:50:35.917Z,21.20
2022-09-01T19:53:16.432Z,23.80
2022-09-01T19:56:13.385Z,22.30
2022-09-01T19:58:40.209Z,22.30
2022-09-01T20:01:12.110Z,20.70
2022-09-01T20:03:43.500Z,21.90
2022-09-01T20:06:35.887Z,23.00
2022-09-01T20:09:26.745Z,20.50
2022-09-01T20:12:08.622Z,20.60
2022-09-01T20:14:54.414Z,23.20
2022-09-01T20:17:46.401Z,21.00
2022-09-01T20:20:19.208Z,22.50
2022-09-01T20:23:23.464Z,23.10
2022-09-01T20:26:01.240Z,22.70
2022-09-01T20:28:59.316Z,20.40
2022-09-01T20:31:50.083Z,20.10
2022-09-01T20:34:52.815Z,22.30
2022-09-01T20:37:33.497Z,22.80
2022-09-01T20:40:07.887Z,20.90
2022-09-01T20:43:24.616Z,22.60
2022-09-01T20:48:24.243Z,20.90
2022-09-01T20:50:59.849Z,21.60
2022-09-01T20:53:35.381Z,22.30
2022-09-01T20:56:09.477Z,21.80
2022-09-01T20:58:42.993Z,22.40
2022-09-01T21:01:46.447Z,20.00
2022-09-01T21:04:44.033Z,20.00
2022-09-01T21:07:31.450Z,22.30
2022-09-01T21:10:19.850Z,22.10
2022-09-01T21:12:57.198Z,20.30
2022-09-01T21:15:55.935Z,20.90
2022-09-01T21:18:39.204Z,20.00
2022-09-01T21:21:56.566Z,20.60
2022-09-01T21:24:23.337Z,20.60
2022-09-01T21:29:29.516Z,19.20
2022-09-01T21:31:56.978Z,19.30
2022-09-01T21:34:23.828Z,19.50
2022-09-01T21:36:50.654Z,20.70
2022-09-01T21:39:22.226Z,19.60
2022-09-01T21:41:49.215Z,21.50
2022-09-01T21:44:16.242Z,19.00
2022-09-01T21:46:43.289Z,18.90
2022-09-01T21:49:12.635Z,18.90
2022-09-01T21:51:40.618Z,19.10
2022-09-01T21:54:08.086Z,19.00
2022-09-01T21:59:02.194Z,18.80
2022-09-01T22:01:31.830Z,19.50
2022-09-01T22:03:59.155Z,20.70
2022-09-01T22:11:22.351Z,19.70
2022-09-01T22:13:50.004Z,19.60
2022-09-01T22:16:20.243Z,18.70
2022-09-01T22:18:47.474Z,18.90
2022-09-01T22:21:15.413Z,18.40
2022-09-01T22:23:42.767Z,18.70
2022-09-01T22:26:16.768Z,19.40
2022-09-01T22:31:19.671Z,20.20
2022-09-01T22:36:23.776Z,20.20
2022-09-01T22:38:51.125Z,20.60
2022-09-01T22:41:22.912Z,19.10
2022-09-01T22:43:50.132Z,19.10
2022-09-01T22:46:19.514Z,17.90
2022-09-01T22:51:16.554Z,19.80
2022-09-01T22:53:44.980Z,17.80
2022-09-01T22:56:14.051Z,20.30
2022-09-01T23:01:14.931Z,18.30
2022-09-01T23:03:43.421Z,18.80
2022-09-01T23:06:25.309Z,18.90
2022-09-01T23:08:56.220Z,18.70
2022-09-01T23:11:23.759Z,18.50
2022-09-01T23:16:19.917Z,18.10
2022-09-01T23:18:48.180Z,19.40
2022-09-01T23:21:17.094Z,17.80
2022-09-01T23:23:44.094Z,19.30
2022-09-01T23:26:12.817Z,18.60
2022-09-01T23:28:41.954Z,19.00
2022-09-01T23:31:10.840Z,19.80
2022-09-01T23:36:09.422Z,18.50
2022-09-01T23:38:37.392Z,18.80
2022-09-01T23:41:08.127Z,17.30
2022-09-01T23:48:30.081Z,17.40
2022-09-01T23:50:59.407Z,17.20
2022-09-01T23:53:29.057Z,19.30
2022-09-01T23:55:58.788Z,20.30
2022-09-01T23:58:27.126Z,18.30
